sensor_id;sensor_type;location;lat;lon;timestamp;temperature;humidity
26503;DHT22;14177;51.520;6.764;2023-11-18T00:00:01;2.60;99.90
26503;DHT22;14177;51.520;6.764;2023-11-18T00:02:38;2.60;99.90
26503;DHT22;14177;51.520;6.764;2023-11-18T00:05:05;2.60;99.90
26503;DHT22;14177;51.520;6.764;2023-11-18T00:07:34;2.60;99.90
26503;DHT22;14177;51.520;6.764;2023-11-18T00:10:02;2.70;99.90
26503;DHT22;14177;51.520;6.764;2023-11-18T00:12:30;2.70;99.90
26503;DHT22;14177;51.520;6.764;2023-11-18T00:14:57;2.70;99.90
26503;DHT22;14177;51.520;6.764;2023-11-18T00:17:24;2.70;99.90
26503;DHT22;14177;51.520;6.764;2023-11-18T00:19:51;2.70;99.90
26503;DHT22;14177;51.520;6.764;2023-11-18T00:22:18;2.70;99.90
26503;DHT22;14177;51.520;6.764;2023-11-18T00:24:45;2.80;99.90
26503;DHT22;14177;51.520;6.764;2023-11-18T00:27:12;2.70;99.90
26503;DHT22;14177;51.520;6.764;2023-11-18T00:29:40;2.80;99.90
26503;DHT22;14177;51.520;6.764;2023-11-18T00:32:07;2.70;99.90
26503;DHT22;14177;51.520;6.764;2023-11-18T00:34:35;2.70;99.90
26503;DHT22;14177;51.520;6.764;2023-11-18T00:37:02;2.70;99.90
26503;DHT22;14177;51.520;6.764;2023-11-18T00:39:28;2.60;99.90
26503;DHT22;14177;51.520;6.764;2023-11-18T00:41:55;2.60;99.90
26503;DHT22;14177;51.520;6.764;2023-11-18T00:44:23;2.50;99.90
26503;DHT22;14177;51.520;6.764;2023-11-18T00:46:50;2.50;99.90
26503;DHT22;14177;51.520;6.764;2023-11-18T00:49:17;2.50;99.90
26503;DHT22;14177;51.520;6.764;2023-11-18T00:51:44;2.40;99.90
26503;DHT22;14177;51.520;6.764;2023-11-18T00:54:11;2.40;99.90
26503;DHT22;14177;51.520;6.764;2023-11-18T00:56:39;2.50;99.90
26503;DHT22;14177;51.520;6.764;2023-11-18T00:59:06;2.40;99.90
26503;DHT22;14177;51.520;6.764;2023-11-18T01:01:33;2.40;99.90
26503;DHT22;14177;51.520;6.764;2023-11-18T01:04:01;2.50;99.90
26503;DHT22;14177;51.520;6.764;2023-11-18T01:06:29;2.40;99.90
26503;DHT22;14177;51.520;6.764;2023-11-18T01:08:56;2.50;99.90
26503;DHT22;14177;51.520;6.764;2023-11-18T01:11:23;2.50;99.90
26503;DHT22;14177;51.520;6.764;2023-11-18T01:13:51;2.60;99.90
26503;DHT22;14177;51.520;6.764;2023-11-18T01:16:18;2.60;99.90
26503;DHT22;14177;51.520;6.764;2023-11-18T01:18:46;2.70;99.90
26503;DHT22;14177;51.520;6.764;2023-11-18T01:21:13;2.70;99.90
26503;DHT22;14177;51.520;6.764;2023-11-18T01:23:43;2.70;99.90
26503;DHT22;14177;51.520;6.764;2023-11-18T01:26:12;2.70;99.90
26503;DHT22;14177;51.520;6.764;2023-11-18T01:28:39;2.70;99.90
26503;DHT22;14177;51.520;6.764;2023-11-18T01:31:10;2.70;99.90
26503;DHT22;14177;51.520;6.764;2023-11-18T01:33:38;2.70;99.90
26503;DHT22;14177;51.520;6.764;2023-11-18T01:36:10;2.70;99.90
26503;DHT22;14177;51.520;6.764;2023-11-18T01:38:38;2.80;99.90
26503;DHT22;14177;51.520;6.764;2023-11-18T01:41:06;2.80;99.90
26503;DHT22;14177;51.520;6.764;2023-11-18T01:43:34;2.80;99.90
26503;DHT22;14177;51.520;6.764;2023-11-18T01:46:07;2.80;99.90
26503;DHT22;14177;51.520;6.764;2023-11-18T01:48:38;2.80;99.90
26503;DHT22;14177;51.520;6.764;2023-11-18T01:51:07;2.80;99.90
26503;DHT22;14177;51.520;6.764;2023-11-18T01:53:37;2.90;99.90
26503;DHT22;14177;51.520;6.764;2023-11-18T01:56:06;3.00;99.90
26503;DHT22;14177;51.520;6.764;2023-11-18T01:58:36;3.00;99.90
26503;DHT22;14177;51.520;6.764;2023-11-18T02:01:04;3.10;99.90
26503;DHT22;14177;51.520;6.764;2023-11-18T02:03:35;3.10;99.90
26503;DHT22;14177;51.520;6.764;2023-11-18T02:06:04;3.20;99.90
26503;DHT22;14177;51.520;6.764;2023-11-18T02:08:33;3.20;99.90
26503;DHT22;14177;51.520;6.764;2023-11-18T02:11:17;3.30;99.90
26503;DHT22;14177;51.520;6.764;2023-11-18T02:13:53;3.40;99.90
26503;DHT22;14177;51.520;6.764;2023-11-18T02:16:26;3.50;99.90
26503;DHT22;14177;51.520;6.764;2023-11-18T02:18:54;3.60;99.90
26503;DHT22;14177;51.520;6.764;2023-11-18T02:21:22;3.70;99.90
26503;DHT22;14177;51.520;6.764;2023-11-18T02:23:50;3.70;99.90
26503;DHT22;14177;51.520;6.764;2023-11-18T02:26:23;3.80;99.90
26503;DHT22;14177;51.520;6.764;2023-11-18T02:28:51;3.90;99.90
26503;DHT22;14177;51.520;6.764;2023-11-18T02:31:32;3.90;99.90
26503;DHT22;14177;51.520;6.764;2023-11-18T02:34:13;4.00;99.90
26503;DHT22;14177;51.520;6.764;2023-11-18T02:36:49;4.00;99.90
26503;DHT22;14177;51.520;6.764;2023-11-18T02:39:41;4.10;99.90
26503;DHT22;14177;51.520;6.764;2023-11-18T02:42:12;4.10;99.90
26503;DHT22;14177;51.520;6.764;2023-11-18T02:44:40;4.10;99.90
26503;DHT22;14177;51.520;6.764;2023-11-18T02:47:08;4.10;99.90
26503;DHT22;14177;51.520;6.764;2023-11-18T02:49:37;4.10;99.90
26503;DHT22;14177;51.520;6.764;2023-11-18T02:52:04;4.10;99.90
26503;DHT22;14177;51.520;6.764;2023-11-18T02:54:31;4.10;99.90
26503;DHT22;14177;51.520;6.764;2023-11-18T02:56:59;4.10;99.90
26503;DHT22;14177;51.520;6.764;2023-11-18T02:59:26;4.10;99.90
26503;DHT22;14177;51.520;6.764;2023-11-18T03:01:56;4.20;99.90
26503;DHT22;14177;51.520;6.764;2023-11-18T03:04:24;4.20;99.90
26503;DHT22;14177;51.520;6.764;2023-11-18T03:06:51;4.20;99.90
26503;DHT22;14177;51.520;6.764;2023-11-18T03:09:18;4.20;99.90
26503;DHT22;14177;51.520;6.764;2023-11-18T03:11:45;4.20;99.90
26503;DHT22;14177;51.520;6.764;2023-11-18T03:14:13;4.20;99.90
26503;DHT22;14177;51.520;6.764;2023-11-18T03:16:40;4.20;99.90
26503;DHT22;14177;51.520;6.764;2023-11-18T03:19:07;4.20;99.90
26503;DHT22;14177;51.520;6.764;2023-11-18T03:21:35;4.20;99.90
26503;DHT22;14177;51.520;6.764;2023-11-18T03:24:03;4.30;99.90
26503;DHT22;14177;51.520;6.764;2023-11-18T03:26:30;4.20;99.90
26503;DHT22;14177;51.520;6.764;2023-11-18T03:28:58;4.30;99.90
26503;DHT22;14177;51.520;6.764;2023-11-18T03:31:26;4.30;99.90
26503;DHT22;14177;51.520;6.764;2023-11-18T03:33:53;4.30;99.90
26503;DHT22;14177;51.520;6.764;2023-11-18T03:36:20;4.30;99.90
26503;DHT22;14177;51.520;6.764;2023-11-18T03:38:47;4.30;99.90
26503;DHT22;14177;51.520;6.764;2023-11-18T03:41:16;4.20;99.90
26503;DHT22;14177;51.520;6.764;2023-11-18T03:43:43;4.20;99.90
26503;DHT22;14177;51.520;6.764;2023-11-18T03:46:11;4.20;99.90
26503;DHT22;14177;51.520;6.764;2023-11-18T03:48:38;4.20;99.90
26503;DHT22;14177;51.520;6.764;2023-11-18T03:51:05;4.20;99.90
26503;DHT22;14177;51.520;6.764;2023-11-18T03:53:32;4.20;99.90
26503;DHT22;14177;51.520;6.764;2023-11-18T03:56:00;4.20;99.90
26503;DHT22;14177;51.520;6.764;2023-11-18T03:58:29;4.20;99.90
26503;DHT22;14177;51.520;6.764;2023-11-18T04:00:56;4.20;99.90
26503;DHT22;14177;51.520;6.764;2023-11-18T04:03:24;4.20;99.90
26503;DHT22;14177;51.520;6.764;2023-11-18T04:05:51;4.30;99.90
26503;DHT22;14177;51.520;6.764;2023-11-18T04:08:18;4.30;99.90
26503;DHT22;14177;51.520;6.764;2023-11-18T04:10:45;4.30;99.90
26503;DHT22;14177;51.520;6.764;2023-11-18T04:13:12;4.30;99.90
26503;DHT22;14177;51.520;6.764;2023-11-18T04:15:39;4.30;99.90
26503;DHT22;14177;51.520;6.764;2023-11-18T04:18:06;4.30;99.90
26503;DHT22;14177;51.520;6.764;2023-11-18T04:20:33;4.30;99.90
26503;DHT22;14177;51.520;6.764;2023-11-18T04:23:00;4.30;99.90
26503;DHT22;14177;51.520;6.764;2023-11-18T04:25:27;4.30;99.90
26503;DHT22;14177;51.520;6.764;2023-11-18T04:27:54;4.30;99.90
26503;DHT22;14177;51.520;6.764;2023-11-18T04:30:21;4.30;99.90
26503;DHT22;14177;51.520;6.764;2023-11-18T04:32:48;4.30;99.90
26503;DHT22;14177;51.520;6.764;2023-11-18T04:35:18;4.30;99.90
26503;DHT22;14177;51.520;6.764;2023-11-18T04:37:49;4.30;99.90
26503;DHT22;14177;51.520;6.764;2023-11-18T04:40:16;4.30;99.90
26503;DHT22;14177;51.520;6.764;2023-11-18T04:42:43;4.30;99.90
26503;DHT22;14177;51.520;6.764;2023-11-18T04:45:11;4.30;99.90
26503;DHT22;14177;51.520;6.764;2023-11-18T04:47:38;4.20;99.90
26503;DHT22;14177;51.520;6.764;2023-11-18T04:50:06;4.20;99.90
26503;DHT22;14177;51.520;6.764;2023-11-18T04:52:35;4.20;99.90
26503;DHT22;14177;51.520;6.764;2023-11-18T04:55:04;4.20;99.90
26503;DHT22;14177;51.520;6.764;2023-11-18T04:57:32;4.20;99.90
26503;DHT22;14177;51.520;6.764;2023-11-18T05:00:01;4.20;99.90
26503;DHT22;14177;51.520;6.764;2023-11-18T05:02:40;4.20;99.90
26503;DHT22;14177;51.520;6.764;2023-11-18T05:05:08;4.20;99.90
26503;DHT22;14177;51.520;6.764;2023-11-18T05:07:35;4.20;99.90
26503;DHT22;14177;51.520;6.764;2023-11-18T05:10:03;4.30;99.90
26503;DHT22;14177;51.520;6.764;2023-11-18T05:12:30;4.20;99.90
26503;DHT22;14177;51.520;6.764;2023-11-18T05:14:57;4.30;99.90
26503;DHT22;14177;51.520;6.764;2023-11-18T05:17:24;4.30;99.90
26503;DHT22;14177;51.520;6.764;2023-11-18T05:19:53;4.30;99.90
26503;DHT22;14177;51.520;6.764;2023-11-18T05:22:20;4.30;99.90
26503;DHT22;14177;51.520;6.764;2023-11-18T05:24:48;4.30;99.90
26503;DHT22;14177;51.520;6.764;2023-11-18T05:27:15;4.30;99.90
26503;DHT22;14177;51.520;6.764;2023-11-18T05:29:44;4.30;99.90
26503;DHT22;14177;51.520;6.764;2023-11-18T05:32:23;4.40;99.90
26503;DHT22;14177;51.520;6.764;2023-11-18T05:34:52;4.40;99.90
26503;DHT22;14177;51.520;6.764;2023-11-18T05:37:21;4.40;99.90
26503;DHT22;14177;51.520;6.764;2023-11-18T05:39:49;4.40;99.90
26503;DHT22;14177;51.520;6.764;2023-11-18T05:42:25;4.40;99.90
26503;DHT22;14177;51.520;6.764;2023-11-18T05:44:56;4.50;99.90
26503;DHT22;14177;51.520;6.764;2023-11-18T05:47:26;4.50;99.90
26503;DHT22;14177;51.520;6.764;2023-11-18T05:49:53;4.50;99.90
26503;DHT22;14177;51.520;6.764;2023-11-18T05:52:22;4.50;99.90
26503;DHT22;14177;51.520;6.764;2023-11-18T05:54:49;4.50;99.90
26503;DHT22;14177;51.520;6.764;2023-11-18T05:57:17;4.50;99.90
26503;DHT22;14177;51.520;6.764;2023-11-18T05:59:45;4.50;99.90
26503;DHT22;14177;51.520;6.764;2023-11-18T06:02:15;4.50;99.90
26503;DHT22;14177;51.520;6.764;2023-11-18T06:04:45;4.60;99.90
26503;DHT22;14177;51.520;6.764;2023-11-18T06:07:12;4.60;99.90
26503;DHT22;14177;51.520;6.764;2023-11-18T06:09:41;4.60;99.90
26503;DHT22;14177;51.520;6.764;2023-11-18T06:12:08;4.70;99.90
26503;DHT22;14177;51.520;6.764;2023-11-18T06:14:37;4.70;99.90
26503;DHT22;14177;51.520;6.764;2023-11-18T06:17:05;4.70;99.90
26503;DHT22;14177;51.520;6.764;2023-11-18T06:19:35;4.70;99.90
26503;DHT22;14177;51.520;6.764;2023-11-18T06:22:02;4.70;99.90
26503;DHT22;14177;51.520;6.764;2023-11-18T06:24:29;4.70;99.90
26503;DHT22;14177;51.520;6.764;2023-11-18T06:26:56;4.70;99.90
26503;DHT22;14177;51.520;6.764;2023-11-18T06:29:23;4.80;99.90
26503;DHT22;14177;51.520;6.764;2023-11-18T06:31:50;4.80;99.90
26503;DHT22;14177;51.520;6.764;2023-11-18T06:34:17;4.80;99.90
26503;DHT22;14177;51.520;6.764;2023-11-18T06:36:47;4.80;99.90
26503;DHT22;14177;51.520;6.764;2023-11-18T06:39:14;4.80;99.90
26503;DHT22;14177;51.520;6.764;2023-11-18T06:41:43;4.80;99.90
26503;DHT22;14177;51.520;6.764;2023-11-18T06:44:15;4.90;99.90
26503;DHT22;14177;51.520;6.764;2023-11-18T06:46:44;4.90;99.90
26503;DHT22;14177;51.520;6.764;2023-11-18T06:49:11;4.90;99.90
26503;DHT22;14177;51.520;6.764;2023-11-18T06:51:42;4.90;99.90
26503;DHT22;14177;51.520;6.764;2023-11-18T06:54:09;4.90;99.90
26503;DHT22;14177;51.520;6.764;2023-11-18T06:56:42;4.90;99.90
26503;DHT22;14177;51.520;6.764;2023-11-18T06:59:11;4.90;99.90
26503;DHT22;14177;51.520;6.764;2023-11-18T07:01:41;5.00;99.90
26503;DHT22;14177;51.520;6.764;2023-11-18T07:04:13;5.00;99.90
26503;DHT22;14177;51.520;6.764;2023-11-18T07:06:42;5.00;99.90
26503;DHT22;14177;51.520;6.764;2023-11-18T07:09:10;5.00;99.90
26503;DHT22;14177;51.520;6.764;2023-11-18T07:11:41;5.10;99.90
26503;DHT22;14177;51.520;6.764;2023-11-18T07:14:09;5.10;99.90
26503;DHT22;14177;51.520;6.764;2023-11-18T07:16:41;5.10;99.90
26503;DHT22;14177;51.520;6.764;2023-11-18T07:19:09;5.10;99.90
26503;DHT22;14177;51.520;6.764;2023-11-18T07:21:47;5.20;99.90
26503;DHT22;14177;51.520;6.764;2023-11-18T07:24:16;5.20;99.90
26503;DHT22;14177;51.520;6.764;2023-11-18T07:26:44;5.20;99.90
26503;DHT22;14177;51.520;6.764;2023-11-18T07:29:12;5.30;99.90
26503;DHT22;14177;51.520;6.764;2023-11-18T07:31:39;5.20;99.90
26503;DHT22;14177;51.520;6.764;2023-11-18T07:34:06;5.30;99.90
26503;DHT22;14177;51.520;6.764;2023-11-18T07:36:33;5.30;99.90
26503;DHT22;14177;51.520;6.764;2023-11-18T07:39:00;5.30;99.90
26503;DHT22;14177;51.520;6.764;2023-11-18T07:41:31;5.30;99.90
26503;DHT22;14177;51.520;6.764;2023-11-18T07:43:59;5.40;99.90
26503;DHT22;14177;51.520;6.764;2023-11-18T07:46:27;5.40;99.90
26503;DHT22;14177;51.520;6.764;2023-11-18T07:48:57;5.40;99.90
26503;DHT22;14177;51.520;6.764;2023-11-18T07:51:24;5.50;99.90
26503;DHT22;14177;51.520;6.764;2023-11-18T07:53:51;5.50;99.90
26503;DHT22;14177;51.520;6.764;2023-11-18T07:56:22;5.50;99.90
26503;DHT22;14177;51.520;6.764;2023-11-18T07:58:50;5.50;99.90
26503;DHT22;14177;51.520;6.764;2023-11-18T08:01:19;5.60;99.90
26503;DHT22;14177;51.520;6.764;2023-11-18T08:03:47;5.60;99.90
26503;DHT22;14177;51.520;6.764;2023-11-18T08:06:14;5.60;99.90
26503;DHT22;14177;51.520;6.764;2023-11-18T08:08:41;5.60;99.90
26503;DHT22;14177;51.520;6.764;2023-11-18T08:11:11;5.60;99.90
26503;DHT22;14177;51.520;6.764;2023-11-18T08:13:39;5.70;99.90
26503;DHT22;14177;51.520;6.764;2023-11-18T08:16:07;5.70;99.90
26503;DHT22;14177;51.520;6.764;2023-11-18T08:18:35;5.70;99.90
26503;DHT22;14177;51.520;6.764;2023-11-18T08:21:03;5.70;99.90
26503;DHT22;14177;51.520;6.764;2023-11-18T08:23:33;5.80;99.90
26503;DHT22;14177;51.520;6.764;2023-11-18T08:26:00;5.80;99.90
26503;DHT22;14177;51.520;6.764;2023-11-18T08:28:28;5.80;99.90
26503;DHT22;14177;51.520;6.764;2023-11-18T08:30:55;5.80;99.90
26503;DHT22;14177;51.520;6.764;2023-11-18T08:33:22;5.80;99.90
26503;DHT22;14177;51.520;6.764;2023-11-18T08:35:51;5.80;99.90
26503;DHT22;14177;51.520;6.764;2023-11-18T08:38:18;5.90;99.90
26503;DHT22;14177;51.520;6.764;2023-11-18T08:40:46;5.90;99.90
26503;DHT22;14177;51.520;6.764;2023-11-18T08:43:15;5.90;99.90
26503;DHT22;14177;51.520;6.764;2023-11-18T08:45:43;6.00;99.90
26503;DHT22;14177;51.520;6.764;2023-11-18T08:48:10;6.00;99.90
26503;DHT22;14177;51.520;6.764;2023-11-18T08:50:38;6.00;99.90
26503;DHT22;14177;51.520;6.764;2023-11-18T08:53:09;6.10;99.90
26503;DHT22;14177;51.520;6.764;2023-11-18T08:55:38;6.10;99.90
26503;DHT22;14177;51.520;6.764;2023-11-18T08:58:11;6.10;99.90
26503;DHT22;14177;51.520;6.764;2023-11-18T09:00:52;6.10;99.90
26503;DHT22;14177;51.520;6.764;2023-11-18T09:03:25;6.10;99.90
26503;DHT22;14177;51.520;6.764;2023-11-18T09:06:06;6.10;99.90
26503;DHT22;14177;51.520;6.764;2023-11-18T09:08:45;6.20;99.90
26503;DHT22;14177;51.520;6.764;2023-11-18T09:11:19;6.10;99.90
26503;DHT22;14177;51.520;6.764;2023-11-18T09:13:51;6.20;99.90
26503;DHT22;14177;51.520;6.764;2023-11-18T09:16:24;6.20;99.90
26503;DHT22;14177;51.520;6.764;2023-11-18T09:18:57;6.20;99.90
26503;DHT22;14177;51.520;6.764;2023-11-18T09:21:29;6.20;99.90
26503;DHT22;14177;51.520;6.764;2023-11-18T09:23:59;6.30;99.90
26503;DHT22;14177;51.520;6.764;2023-11-18T09:26:26;6.30;99.90
26503;DHT22;14177;51.520;6.764;2023-11-18T09:28:57;6.40;99.90
26503;DHT22;14177;51.520;6.764;2023-11-18T09:31:25;6.40;99.90
26503;DHT22;14177;51.520;6.764;2023-11-18T09:33:52;6.40;99.90
26503;DHT22;14177;51.520;6.764;2023-11-18T09:36:20;6.50;99.90
26503;DHT22;14177;51.520;6.764;2023-11-18T09:38:48;6.50;99.90
26503;DHT22;14177;51.520;6.764;2023-11-18T09:41:16;6.50;99.90
26503;DHT22;14177;51.520;6.764;2023-11-18T09:43:45;6.60;99.90
26503;DHT22;14177;51.520;6.764;2023-11-18T09:46:15;6.60;99.90
26503;DHT22;14177;51.520;6.764;2023-11-18T09:48:48;6.60;99.90
26503;DHT22;14177;51.520;6.764;2023-11-18T09:51:25;6.70;99.90
26503;DHT22;14177;51.520;6.764;2023-11-18T09:53:59;6.70;99.90
26503;DHT22;14177;51.520;6.764;2023-11-18T09:59:33;6.80;99.90
26503;DHT22;14177;51.520;6.764;2023-11-18T10:02:03;6.80;99.90
26503;DHT22;14177;51.520;6.764;2023-11-18T10:04:32;6.80;99.90
26503;DHT22;14177;51.520;6.764;2023-11-18T10:07:01;6.90;99.90
26503;DHT22;14177;51.520;6.764;2023-11-18T10:09:29;7.00;99.90
26503;DHT22;14177;51.520;6.764;2023-11-18T10:12:04;7.00;99.90
26503;DHT22;14177;51.520;6.764;2023-11-18T10:14:35;7.00;99.90
26503;DHT22;14177;51.520;6.764;2023-11-18T10:17:06;7.10;99.90
26503;DHT22;14177;51.520;6.764;2023-11-18T10:22:28;7.20;99.90
26503;DHT22;14177;51.520;6.764;2023-11-18T10:24:57;7.20;99.90
26503;DHT22;14177;51.520;6.764;2023-11-18T10:27:26;7.20;99.90
26503;DHT22;14177;51.520;6.764;2023-11-18T10:30:05;7.30;99.90
26503;DHT22;14177;51.520;6.764;2023-11-18T10:33:00;7.30;99.90
26503;DHT22;14177;51.520;6.764;2023-11-18T10:35:33;7.40;99.90
26503;DHT22;14177;51.520;6.764;2023-11-18T10:38:04;7.40;99.90
26503;DHT22;14177;51.520;6.764;2023-11-18T10:40:32;7.40;99.90
26503;DHT22;14177;51.520;6.764;2023-11-18T10:43:04;7.50;99.90
26503;DHT22;14177;51.520;6.764;2023-11-18T10:45:37;7.50;99.90
26503;DHT22;14177;51.520;6.764;2023-11-18T10:48:11;7.50;99.90
26503;DHT22;14177;51.520;6.764;2023-11-18T10:50:46;7.50;99.90
26503;DHT22;14177;51.520;6.764;2023-11-18T10:53:18;7.50;99.90
26503;DHT22;14177;51.520;6.764;2023-11-18T10:55:45;7.50;99.90
26503;DHT22;14177;51.520;6.764;2023-11-18T10:58:12;7.50;99.90
26503;DHT22;14177;51.520;6.764;2023-11-18T11:00:51;7.50;99.90
26503;DHT22;14177;51.520;6.764;2023-11-18T11:03:26;7.50;99.90
26503;DHT22;14177;51.520;6.764;2023-11-18T11:06:00;7.50;99.90
26503;DHT22;14177;51.520;6.764;2023-11-18T11:08:43;7.60;99.90
26503;DHT22;14177;51.520;6.764;2023-11-18T11:11:11;7.60;99.90
26503;DHT22;14177;51.520;6.764;2023-11-18T11:13:44;7.60;99.90
26503;DHT22;14177;51.520;6.764;2023-11-18T11:16:18;7.60;99.90
26503;DHT22;14177;51.520;6.764;2023-11-18T11:18:53;7.60;99.90
26503;DHT22;14177;51.520;6.764;2023-11-18T11:21:26;7.60;99.90
26503;DHT22;14177;51.520;6.764;2023-11-18T11:24:08;7.70;99.90
26503;DHT22;14177;51.520;6.764;2023-11-18T11:27:12;7.70;99.90
26503;DHT22;14177;51.520;6.764;2023-11-18T11:29:57;7.70;99.90
26503;DHT22;14177;51.520;6.764;2023-11-18T11:32:47;7.80;99.90
26503;DHT22;14177;51.520;6.764;2023-11-18T11:35:23;7.70;99.90
26503;DHT22;14177;51.520;6.764;2023-11-18T11:37:54;7.80;99.90
26503;DHT22;14177;51.520;6.764;2023-11-18T11:40:33;7.80;99.90
26503;DHT22;14177;51.520;6.764;2023-11-18T11:43:06;7.80;99.90
26503;DHT22;14177;51.520;6.764;2023-11-18T11:45:37;7.80;99.90
26503;DHT22;14177;51.520;6.764;2023-11-18T11:48:07;7.80;99.90
26503;DHT22;14177;51.520;6.764;2023-11-18T11:50:52;7.80;99.90
26503;DHT22;14177;51.520;6.764;2023-11-18T11:53:35;7.80;99.90
26503;DHT22;14177;51.520;6.764;2023-11-18T11:56:12;7.80;99.90
26503;DHT22;14177;51.520;6.764;2023-11-18T11:58:50;7.80;99.90
26503;DHT22;14177;51.520;6.764;2023-11-18T12:01:36;7.90;99.90
26503;DHT22;14177;51.520;6.764;2023-11-18T12:04:05;7.90;99.90
26503;DHT22;14177;51.520;6.764;2023-11-18T12:06:41;7.90;99.90
26503;DHT22;14177;51.520;6.764;2023-11-18T12:09:10;7.90;99.90
26503;DHT22;14177;51.520;6.764;2023-11-18T12:11:46;7.90;99.90
26503;DHT22;14177;51.520;6.764;2023-11-18T12:14:17;7.90;99.90
26503;DHT22;14177;51.520;6.764;2023-11-18T12:17:04;7.90;99.90
26503;DHT22;14177;51.520;6.764;2023-11-18T12:19:41;7.90;99.90
26503;DHT22;14177;51.520;6.764;2023-11-18T12:22:17;7.90;99.90
26503;DHT22;14177;51.520;6.764;2023-11-18T12:25:32;7.90;99.90
26503;DHT22;14177;51.520;6.764;2023-11-18T12:35:25;7.80;99.90
26503;DHT22;14177;51.520;6.764;2023-11-18T12:40:57;7.80;99.90
26503;DHT22;14177;51.520;6.764;2023-11-18T12:49:03;7.80;99.90
26503;DHT22;14177;51.520;6.764;2023-11-18T12:51:32;7.80;99.90
26503;DHT22;14177;51.520;6.764;2023-11-18T12:54:03;7.80;99.90
26503;DHT22;14177;51.520;6.764;2023-11-18T12:56:34;7.80;99.90
26503;DHT22;14177;51.520;6.764;2023-11-18T12:59:01;7.80;99.90
26503;DHT22;14177;51.520;6.764;2023-11-18T13:01:33;7.80;99.90
26503;DHT22;14177;51.520;6.764;2023-11-18T13:04:03;7.80;99.90
26503;DHT22;14177;51.520;6.764;2023-11-18T13:06:30;7.80;99.90
26503;DHT22;14177;51.520;6.764;2023-11-18T13:08:58;7.80;99.90
26503;DHT22;14177;51.520;6.764;2023-11-18T13:11:25;7.90;99.90
26503;DHT22;14177;51.520;6.764;2023-11-18T13:13:52;7.90;99.90
26503;DHT22;14177;51.520;6.764;2023-11-18T13:16:20;7.90;99.90
26503;DHT22;14177;51.520;6.764;2023-11-18T13:18:48;7.90;99.90
26503;DHT22;14177;51.520;6.764;2023-11-18T13:21:18;7.90;99.90
26503;DHT22;14177;51.520;6.764;2023-11-18T13:23:52;7.90;99.90
26503;DHT22;14177;51.520;6.764;2023-11-18T13:26:21;7.90;99.90
26503;DHT22;14177;51.520;6.764;2023-11-18T13:28:49;7.90;99.90
26503;DHT22;14177;51.520;6.764;2023-11-18T13:31:17;7.90;99.90
26503;DHT22;14177;51.520;6.764;2023-11-18T13:33:47;7.90;99.90
26503;DHT22;14177;51.520;6.764;2023-11-18T13:36:16;7.90;99.90
26503;DHT22;14177;51.520;6.764;2023-11-18T13:38:43;7.90;99.90
26503;DHT22;14177;51.520;6.764;2023-11-18T13:41:10;7.90;99.90
26503;DHT22;14177;51.520;6.764;2023-11-18T13:43:46;7.90;99.90
26503;DHT22;14177;51.520;6.764;2023-11-18T13:46:19;7.90;99.90
26503;DHT22;14177;51.520;6.764;2023-11-18T13:48:48;7.90;99.90
26503;DHT22;14177;51.520;6.764;2023-11-18T13:51:19;7.90;99.90
26503;DHT22;14177;51.520;6.764;2023-11-18T13:53:48;7.90;99.90
26503;DHT22;14177;51.520;6.764;2023-11-18T13:56:17;8.00;99.90
26503;DHT22;14177;51.520;6.764;2023-11-18T13:58:46;8.00;99.90
26503;DHT22;14177;51.520;6.764;2023-11-18T14:01:15;8.00;99.90
26503;DHT22;14177;51.520;6.764;2023-11-18T14:03:43;8.00;99.90
26503;DHT22;14177;51.520;6.764;2023-11-18T14:06:10;8.00;99.90
26503;DHT22;14177;51.520;6.764;2023-11-18T14:08:38;8.00;99.90
26503;DHT22;14177;51.520;6.764;2023-11-18T14:11:06;7.90;99.90
26503;DHT22;14177;51.520;6.764;2023-11-18T14:13:43;8.00;99.90
26503;DHT22;14177;51.520;6.764;2023-11-18T14:16:10;7.90;99.90
26503;DHT22;14177;51.520;6.764;2023-11-18T14:18:39;8.00;99.90
26503;DHT22;14177;51.520;6.764;2023-11-18T14:21:08;8.00;99.90
26503;DHT22;14177;51.520;6.764;2023-11-18T14:23:36;8.00;99.90
26503;DHT22;14177;51.520;6.764;2023-11-18T14:26:05;8.00;99.90
26503;DHT22;14177;51.520;6.764;2023-11-18T14:28:34;7.90;99.90
26503;DHT22;14177;51.520;6.764;2023-11-18T14:31:02;7.90;99.90
26503;DHT22;14177;51.520;6.764;2023-11-18T14:33:34;7.90;99.90
26503;DHT22;14177;51.520;6.764;2023-11-18T14:36:01;7.90;99.90
26503;DHT22;14177;51.520;6.764;2023-11-18T14:38:28;7.90;99.90
26503;DHT22;14177;51.520;6.764;2023-11-18T14:40:55;7.90;99.90
26503;DHT22;14177;51.520;6.764;2023-11-18T14:43:23;7.90;99.90
26503;DHT22;14177;51.520;6.764;2023-11-18T14:45:50;7.90;99.90
26503;DHT22;14177;51.520;6.764;2023-11-18T14:48:16;7.90;99.90
26503;DHT22;14177;51.520;6.764;2023-11-18T14:50:43;7.90;99.90
26503;DHT22;14177;51.520;6.764;2023-11-18T14:53:11;7.90;99.90
26503;DHT22;14177;51.520;6.764;2023-11-18T14:55:39;7.90;99.90
26503;DHT22;14177;51.520;6.764;2023-11-18T14:58:06;7.90;99.90
26503;DHT22;14177;51.520;6.764;2023-11-18T15:00:33;7.80;99.90
26503;DHT22;14177;51.520;6.764;2023-11-18T15:03:01;7.80;99.90
26503;DHT22;14177;51.520;6.764;2023-11-18T15:05:28;7.80;99.90
26503;DHT22;14177;51.520;6.764;2023-11-18T15:07:57;7.80;99.90
26503;DHT22;14177;51.520;6.764;2023-11-18T15:10:27;7.80;99.90
26503;DHT22;14177;51.520;6.764;2023-11-18T15:12:56;7.80;99.90
26503;DHT22;14177;51.520;6.764;2023-11-18T15:15:29;7.70;99.90
26503;DHT22;14177;51.520;6.764;2023-11-18T15:17:59;7.70;99.90
26503;DHT22;14177;51.520;6.764;2023-11-18T15:20:31;7.70;99.90
26503;DHT22;14177;51.520;6.764;2023-11-18T15:22:58;7.70;99.90
26503;DHT22;14177;51.520;6.764;2023-11-18T15:25:25;7.70;99.90
26503;DHT22;14177;51.520;6.764;2023-11-18T15:27:53;7.70;99.90
26503;DHT22;14177;51.520;6.764;2023-11-18T15:30:22;7.70;99.90
26503;DHT22;14177;51.520;6.764;2023-11-18T15:32:52;7.70;99.90
26503;DHT22;14177;51.520;6.764;2023-11-18T15:35:20;7.70;99.90
26503;DHT22;14177;51.520;6.764;2023-11-18T15:37:50;7.70;99.90
26503;DHT22;14177;51.520;6.764;2023-11-18T15:40:18;7.70;99.90
26503;DHT22;14177;51.520;6.764;2023-11-18T15:42:53;7.70;99.90
26503;DHT22;14177;51.520;6.764;2023-11-18T15:45:21;7.70;99.90
26503;DHT22;14177;51.520;6.764;2023-11-18T15:47:53;7.70;99.90
26503;DHT22;14177;51.520;6.764;2023-11-18T15:50:28;7.70;99.90
26503;DHT22;14177;51.520;6.764;2023-11-18T15:53:26;7.70;99.90
26503;DHT22;14177;51.520;6.764;2023-11-18T15:55:55;7.70;99.90
26503;DHT22;14177;51.520;6.764;2023-11-18T15:58:22;7.70;99.90
26503;DHT22;14177;51.520;6.764;2023-11-18T16:00:53;7.70;99.90
26503;DHT22;14177;51.520;6.764;2023-11-18T16:03:20;7.70;99.90
26503;DHT22;14177;51.520;6.764;2023-11-18T16:05:48;7.80;99.90
26503;DHT22;14177;51.520;6.764;2023-11-18T16:08:16;7.70;99.90
26503;DHT22;14177;51.520;6.764;2023-11-18T16:10:43;7.80;99.90
26503;DHT22;14177;51.520;6.764;2023-11-18T16:13:10;7.80;99.90
26503;DHT22;14177;51.520;6.764;2023-11-18T16:15:36;7.80;99.90
26503;DHT22;14177;51.520;6.764;2023-11-18T16:18:04;7.80;99.90
26503;DHT22;14177;51.520;6.764;2023-11-18T16:20:31;7.70;99.90
26503;DHT22;14177;51.520;6.764;2023-11-18T16:23:00;7.80;99.90